Time;durP1;ratioP1;P1;durP2;ratioP2;P2;SDS_P1;SDS_P2;PMS_P1;PMS_P2;Temp;Humidity;BMP_temperature;BMP_pressure;BME280_temperature;BME280_humidity;BME280_pressure;Samples;Min_cycle;Max_cycle;Signal;HPM_P1;HPM_P2
2021/01/04 00:01:43;;;;;;;16.90;15.25;;;3.00;77.60;4.70;100182.00;;;;5099777;28;20468;-78
2021/01/04 00:04:44;;;;;;;17.17;15.48;;;3.00;77.70;4.70;100192.00;;;;5093121;28;20427;-80
2021/01/04 00:07:46;;;;;;;17.40;15.70;;;3.00;77.70;4.70;100190.00;;;;5084969;28;20461;-79
2021/01/04 00:10:29;;;;;;;16.67;15.07;;;3.00;78.00;4.60;100189.00;;;;5087901;28;20425;-78
2021/01/04 00:13:01;;;;;;;17.33;15.63;;;3.00;77.60;4.50;67234.00;;;;5134540;27;20441;-79
2021/01/04 00:15:37;;;;;;;17.58;15.88;;;2.90;77.70;4.50;100198.00;;;;5119855;27;20418;-78
2021/01/04 00:18:41;;;;;;;16.80;15.10;;;2.90;77.70;4.50;100204.00;;;;5120959;27;21014;-79
2021/01/04 00:21:19;;;;;;;17.20;15.60;;;2.90;77.80;4.50;100204.00;;;;5064691;28;21017;-79
2021/01/04 00:24:01;;;;;;;16.90;15.20;;;3.00;78.60;4.60;100198.00;;;;5100690;28;20419;-79
2021/01/04 00:26:40;;;;;;;16.70;15.10;;;3.00;77.80;4.60;100182.00;;;;5108469;28;20464;-78
2021/01/04 00:29:08;;;;;;;16.57;14.97;;;3.00;77.70;4.50;100186.00;;;;5102725;28;20421;-79
2021/01/04 00:31:41;;;;;;;17.30;15.60;;;3.00;77.50;4.60;100191.00;;;;5110715;28;20439;-80
2021/01/04 00:34:14;;;;;;;16.60;15.00;;;3.00;78.00;4.70;100189.00;;;;5109751;28;20415;-80
2021/01/04 00:37:05;;;;;;;18.02;16.13;;;3.00;77.70;4.70;100176.00;;;;5126684;27;20472;-78
2021/01/04 00:39:54;;;;;;;18.73;16.83;;;3.00;77.80;4.60;100198.00;;;;5103705;28;20421;-79
2021/01/04 00:42:36;;;;;;;18.30;16.40;;;3.00;77.70;4.70;100182.00;;;;5095847;28;20467;-78
2021/01/04 00:45:17;;;;;;;18.48;16.65;;;3.00;77.90;217.30;158665.00;;;;5114497;28;20449;-78
2021/01/04 00:47:59;;;;;;;18.70;16.70;;;3.00;77.60;4.60;100183.00;;;;5117216;28;20435;-78
2021/01/04 00:50:54;;;;;;;19.27;17.27;;;3.00;77.60;4.60;100190.00;;;;5109948;28;20425;-78
2021/01/04 00:53:29;;;;;;;19.30;17.30;;;3.00;77.60;4.50;100185.00;;;;5104628;28;20456;-78
2021/01/04 00:56:38;;;;;;;17.90;16.10;;;3.00;77.80;4.60;100177.00;;;;5100502;28;20461;-79
2021/01/04 00:59:13;;;;;;;19.38;17.38;;;3.00;78.00;4.70;100184.00;;;;5106254;28;20468;-79
2021/01/04 01:02:20;;;;;;;18.00;16.30;;;3.00;78.10;4.60;100180.00;;;;5102368;28;20519;-79
2021/01/04 01:05:01;;;;;;;18.88;17.00;;;3.00;77.80;4.70;100193.00;;;;5092837;28;20472;-79
2021/01/04 01:08:14;;;;;;;19.55;17.45;;;3.00;77.90;4.70;100193.00;;;;5111496;28;20414;-79
2021/01/04 01:10:46;;;;;;;17.55;15.75;;;3.00;78.10;4.70;67293.00;;;;5104133;28;20462;-79
2021/01/04 01:13:46;;;;;;;18.90;16.98;;;3.00;78.00;4.70;100200.00;;;;5088527;28;20421;-78
2021/01/04 01:16:39;;;;;;;18.40;16.50;;;3.00;78.00;4.60;100202.00;;;;5116429;28;20422;-78
2021/01/04 01:19:17;;;;;;;18.95;16.98;;;3.00;77.90;4.70;100200.00;;;;5094358;28;20431;-78
2021/01/04 01:21:46;;;;;;;18.70;16.75;;;3.00;78.00;4.60;100202.00;;;;5091887;28;20872;-78
2021/01/04 01:24:15;;;;;;;18.40;16.60;;;3.00;77.80;4.60;100202.00;;;;5099960;28;20832;-78
2021/01/04 01:27:13;;;;;;;18.88;16.88;;;3.00;78.00;4.70;100198.00;;;;5134312;27;20423;-79
2021/01/04 01:30:15;;;;;;;19.73;17.73;;;2.90;77.90;4.60;100194.00;;;;5101015;28;20477;-78
2021/01/04 01:33:06;;;;;;;19.65;17.65;;;3.00;78.10;4.60;100110.00;;;;5103398;28;20496;-77
2021/01/04 01:35:58;;;;;;;19.40;17.40;;;3.00;78.10;4.60;100201.00;;;;5095069;28;20492;-78
2021/01/04 01:38:48;;;;;;;19.23;17.33;;;3.00;78.10;4.50;100196.00;;;;5085248;28;20419;-78
2021/01/04 01:41:54;;;;;;;20.50;18.40;;;3.00;78.00;4.60;100194.00;;;;5088472;28;20466;-79
2021/01/04 01:44:28;;;;;;;18.85;16.95;;;3.00;78.10;4.60;100194.00;;;;5102368;28;20473;-79
2021/01/04 01:47:03;;;;;;;19.70;17.80;;;3.00;78.00;4.60;100206.00;;;;5092776;28;20437;-78
2021/01/04 01:49:50;;;;;;;19.23;17.33;;;2.90;77.90;4.60;100193.00;;;;5092562;28;20477;-79
2021/01/04 01:52:34;;;;;;;18.80;16.80;;;3.00;78.10;4.70;100206.00;;;;5090184;28;20432;-79
2021/01/04 01:55:34;;;;;;;17.58;15.68;;;3.00;78.00;4.70;100214.00;;;;5091007;28;20417;-79
2021/01/04 01:58:51;;;;;;;19.50;17.50;;;3.00;77.80;4.70;100200.00;;;;5094848;28;20967;-79
2021/01/04 02:01:30;;;;;;;19.17;17.17;;;3.00;77.60;4.60;100203.00;;;;5105293;28;20897;-79
2021/01/04 02:04:04;;;;;;;18.70;16.80;;;3.00;77.70;4.60;100199.00;;;;5106372;28;20444;-79
2021/01/04 02:06:53;;;;;;;20.30;18.30;;;3.00;77.70;4.60;100197.00;;;;5112094;28;20454;-80
2021/01/04 02:09:29;;;;;;;19.27;17.27;;;3.00;78.00;4.60;100202.00;;;;5118053;28;20413;-80
2021/01/04 02:12:09;;;;;;;20.60;18.50;;;2.90;77.90;4.50;100206.00;;;;5101952;28;20520;-77
2021/01/04 02:14:47;;;;;;;20.40;18.30;;;2.90;78.00;4.60;100213.00;;;;5095485;28;20466;-78
2021/01/04 02:17:50;;;;;;;19.13;17.10;;;2.90;78.10;4.50;100194.00;;;;5093692;28;20460;-78
2021/01/04 02:21:11;;;;;;;21.15;18.95;;;2.90;78.10;4.50;100214.00;;;;5107198;28;20433;-78
2021/01/04 02:24:04;;;;;;;21.05;18.95;;;2.90;78.30;4.50;100215.00;;;;5091545;28;20539;-78
2021/01/04 02:26:32;;;;;;;20.42;18.33;;;2.80;78.10;4.50;100214.00;;;;5092806;28;20496;-77
2021/01/04 02:29:06;;;;;;;21.37;19.07;;;2.80;78.30;4.50;100208.00;;;;5093653;28;20425;-78
2021/01/04 02:31:36;;;;;;;20.70;18.57;;;2.80;78.30;4.50;100203.00;;;;5092266;28;20562;-77
2021/01/04 02:34:09;;;;;;;20.40;18.27;;;2.80;78.60;4.50;100225.00;;;;5116127;28;20458;-79
2021/01/04 02:36:40;;;;;;;20.52;18.38;;;2.80;78.10;4.60;100230.00;;;;5120007;28;20412;-79
2021/01/04 02:39:14;;;;;;;20.45;18.25;;;2.80;78.50;4.60;100215.00;;;;5117985;27;20433;-79
2021/01/04 02:41:56;;;;;;;20.05;17.95;;;3.00;78.60;4.60;100218.00;;;;5095187;28;20468;-80
2021/01/04 02:44:26;;;;;;;20.15;18.05;;;2.90;78.40;4.60;100221.00;;;;5090300;28;20454;-80
2021/01/04 02:47:15;;;;;;;19.35;17.35;;;2.90;78.00;4.60;100225.00;;;;5108468;28;20466;-79
2021/01/04 02:49:54;;;;;;;19.40;17.45;;;3.00;77.80;4.70;100201.00;;;;5091333;28;20537;-76
2021/01/04 02:52:42;;;;;;;19.40;17.40;;;3.00;77.70;4.60;100223.00;;;;5105507;27;20862;-77
2021/01/04 02:55:18;;;;;;;19.98;17.88;;;3.00;77.60;4.60;100214.00;;;;5106235;28;20500;-77
2021/01/04 02:57:54;;;;;;;20.67;18.45;;;2.90;77.90;4.50;100222.00;;;;5096672;28;20427;-77
2021/01/04 03:00:25;;;;;;;20.93;18.60;;;2.90;78.00;4.50;100214.00;;;;5088245;28;20423;-77
2021/01/04 03:02:59;;;;;;;20.90;18.60;;;2.80;78.10;4.50;100227.00;;;;5077364;28;20965;-77
2021/01/04 03:05:27;;;;;;;22.08;19.33;;;2.80;78.00;4.50;100217.00;;;;5090317;28;20429;-77
2021/01/04 03:07:58;;;;;;;20.90;18.70;;;2.80;78.20;4.50;100231.00;;;;5088046;28;20424;-77
2021/01/04 03:10:30;;;;;;;21.17;18.88;;;2.80;78.60;4.50;100220.00;;;;5089891;28;20423;-77
2021/01/04 03:13:23;;;;;;;23.73;19.77;;;2.70;78.60;4.60;100212.00;;;;5092674;28;20422;-77
2021/01/04 03:16:05;;;;;;;21.95;19.60;;;2.80;78.80;4.60;100219.00;;;;5082554;28;20915;-77
2021/01/04 03:18:39;;;;;;;22.65;19.63;;;2.80;78.70;4.60;100217.00;;;;5100646;28;20513;-78
2021/01/04 03:21:08;;;;;;;21.90;19.23;;;2.90;78.20;4.60;100226.00;;;;5091032;28;20844;-78
2021/01/04 03:23:36;;;;;;;22.25;19.27;;;2.90;78.30;4.60;100241.00;;;;5073966;28;20513;-77
2021/01/04 03:26:09;;;;;;;21.75;19.38;;;2.90;78.20;4.60;100219.00;;;;5102515;28;20421;-77
2021/01/04 03:28:37;;;;;;;24.13;20.52;;;2.90;78.30;217.30;158651.00;;;;5101640;28;20987;-77
2021/01/04 03:31:05;;;;;;;23.15;20.30;;;2.80;78.40;4.60;100230.00;;;;5095265;28;20504;-78
2021/01/04 03:33:33;;;;;;;24.10;20.45;;;2.80;78.30;4.60;100223.00;;;;5096935;27;20434;-77
2021/01/04 03:36:01;;;;;;;23.90;20.75;;;2.80;78.50;4.60;100227.00;;;;5092231;28;20418;-78
2021/01/04 03:38:31;;;;;;;23.52;20.30;;;2.80;78.60;4.60;100223.00;;;;5090005;28;20508;-77
2021/01/04 03:40:59;;;;;;;26.02;20.90;;;2.80;78.50;4.60;100224.00;;;;5093883;28;20926;-76
2021/01/04 03:43:27;;;;;;;24.33;20.30;;;2.80;78.30;217.30;158649.00;;;;5093485;28;20928;-77
2021/01/04 03:45:55;;;;;;;22.73;19.65;;;2.90;78.40;4.50;67256.00;;;;5081593;28;20874;-77
2021/01/04 03:48:22;;;;;;;24.85;20.35;;;2.90;78.30;4.50;100224.00;;;;5087051;28;20408;-79
2021/01/04 03:50:50;;;;;;;24.73;21.65;;;2.80;78.50;4.50;100237.00;;;;5100790;28;20816;-77
2021/01/04 03:53:18;;;;;;;25.35;21.92;;;2.80;78.60;4.50;100227.00;;;;5089638;28;20471;-77
2021/01/04 03:55:46;;;;;;;23.95;20.92;;;2.80;78.50;4.50;100224.00;;;;5093765;28;20446;-77
2021/01/04 03:58:13;;;;;;;23.97;20.80;;;2.80;78.40;4.40;100224.00;;;;5103606;28;20428;-77
2021/01/04 04:00:41;;;;;;;24.67;20.70;;;2.70;78.50;4.40;100228.00;;;;5075918;28;20425;-77
2021/01/04 04:03:09;;;;;;;26.73;21.67;;;2.70;78.70;4.40;100208.00;;;;5085105;28;20427;-77
2021/01/04 04:05:36;;;;;;;25.50;21.75;;;2.70;78.70;4.40;100220.00;;;;5073115;28;20514;-76
2021/01/04 04:08:05;;;;;;;25.58;21.90;;;2.70;79.00;4.30;100221.00;;;;5070314;28;20419;-76
2021/01/04 04:10:32;;;;;;;24.55;20.52;;;2.60;78.70;4.30;100240.00;;;;5086454;28;20410;-76
2021/01/04 04:13:00;;;;;;;23.35;20.20;;;2.60;78.80;4.30;100232.00;;;;5086608;28;20850;-76
2021/01/04 04:15:27;;;;;;;24.23;21.08;;;2.60;79.00;4.30;100231.00;;;;5090509;28;20429;-76
2021/01/04 04:17:55;;;;;;;25.25;21.10;;;2.60;79.20;4.40;100230.00;;;;5086781;28;20897;-76
2021/01/04 04:20:25;;;;;;;25.00;21.60;;;2.70;79.40;4.40;100228.00;;;;5086287;28;20413;-77
2021/01/04 04:22:55;;;;;;;27.95;22.38;;;2.60;79.20;4.40;100224.00;;;;5091222;28;21004;-76
2021/01/04 04:25:25;;;;;;;26.35;22.15;;;2.70;79.40;4.40;100224.00;;;;5087854;28;20411;-78
2021/01/04 04:27:54;;;;;;;26.15;21.50;;;2.70;79.40;4.40;100235.00;;;;5109151;27;20433;-81
2021/01/04 04:30:25;;;;;;;25.17;21.23;;;2.70;79.20;4.40;100227.00;;;;5087158;28;20415;-78
2021/01/04 04:32:55;;;;;;;26.23;20.48;;;2.70;78.90;4.30;100219.00;;;;5081745;28;20433;-77
2021/01/04 04:35:23;;;;;;;24.85;20.65;;;2.70;78.90;4.30;100223.00;;;;5101689;28;20507;-77
2021/01/04 04:37:51;;;;;;;24.30;20.92;;;2.70;79.20;4.20;100223.00;;;;5100628;28;20460;-77
2021/01/04 04:40:21;;;;;;;26.47;21.30;;;2.70;79.20;4.40;100225.00;;;;5085031;28;20422;-77
2021/01/04 04:42:53;;;;;;;25.17;20.95;;;2.70;79.30;4.40;100217.00;;;;5079897;28;20481;-77
2021/01/04 04:45:21;;;;;;;26.95;21.48;;;2.70;79.20;4.30;100223.00;;;;5084012;28;20411;-77
2021/01/04 04:48:27;;;;;;;26.57;21.93;;;2.70;79.10;4.40;100233.00;;;;5099350;28;20439;-77
2021/01/04 04:51:25;;;;;;;25.75;20.83;;;2.70;79.40;4.40;100230.00;;;;5092190;28;20912;-77
2021/01/04 04:54:33;;;;;;;27.17;21.00;;;2.70;79.50;4.30;100120.00;;;;5073305;28;20459;-76
2021/01/04 04:57:38;;;;;;;26.98;21.48;;;2.70;79.20;4.30;100225.00;;;;5082060;28;20426;-78
2021/01/04 05:00:21;;;;;;;28.23;22.20;;;2.70;79.50;4.30;100233.00;;;;5100267;28;20495;-77
2021/01/04 05:03:04;;;;;;;25.48;20.75;;;2.70;79.10;4.30;100227.00;;;;5079404;28;20884;-77
2021/01/04 05:05:43;;;;;;;27.73;22.17;;;2.70;79.30;4.30;100226.00;;;;5091898;28;20409;-76
2021/01/04 05:08:16;;;;;;;27.77;22.10;;;2.70;79.60;4.40;100028.00;;;;5121769;27;20451;-82
2021/01/04 05:10:49;;;;;;;27.50;22.10;;;2.80;79.60;4.40;100227.00;;;;5101440;28;20473;-78
2021/01/04 05:13:23;;;;;;;27.27;21.75;;;2.70;79.50;4.40;67217.00;;;;5115503;28;20435;-77
2021/01/04 05:15:59;;;;;;;29.35;22.20;;;2.70;79.50;4.40;100237.00;;;;5149961;28;20393;-77
2021/01/04 05:18:50;;;;;;;28.92;21.88;;;2.80;79.60;4.40;100232.00;;;;5132047;28;20537;-76
2021/01/04 05:22:02;;;;;;;25.80;20.40;;;2.70;79.20;4.40;100245.00;;;;5084183;28;20457;-76
2021/01/04 05:25:36;;;;;;;26.40;21.77;;;2.80;79.50;4.50;100234.00;;;;5088439;28;20478;-76
2021/01/04 05:28:39;;;;;;;29.95;22.98;;;2.80;79.50;4.50;100235.00;;;;5028299;28;20433;-77
2021/01/04 05:31:28;;;;;;;27.65;21.35;;;2.80;79.20;4.50;100248.00;;;;5080797;28;20438;-77
2021/01/04 05:34:03;;;;;;;28.05;21.75;;;2.80;79.10;4.40;100234.00;;;;5088788;28;20454;-79
2021/01/04 05:36:46;;;;;;;28.20;21.85;;;2.80;79.20;4.50;100239.00;;;;5103213;28;20416;-77
2021/01/04 05:39:24;;;;;;;28.95;21.67;;;2.80;79.50;4.50;100243.00;;;;5117990;28;21167;-77
2021/01/04 05:42:22;;;;;;;30.00;22.42;;;2.70;79.30;4.40;100233.00;;;;5082377;28;20450;-77
2021/01/04 05:45:06;;;;;;;30.60;22.80;;;2.80;79.40;4.40;100246.00;;;;5109635;28;20402;-78
2021/01/04 05:48:12;;;;;;;29.60;22.70;;;2.80;79.50;4.40;100249.00;;;;5081629;28;20417;-78
2021/01/04 05:50:53;;;;;;;29.40;22.73;;;2.70;79.70;4.30;100243.00;;;;5076462;28;20527;-78
2021/01/04 05:53:21;;;;;;;28.97;22.60;;;2.70;80.00;4.30;100257.00;;;;5088694;28;20788;-76
2021/01/04 05:55:55;;;;;;;30.45;21.98;;;2.70;79.50;4.40;100247.00;;;;5089147;28;20920;-77
2021/01/04 05:58:27;;;;;;;31.00;22.58;;;2.80;79.70;4.40;100252.00;;;;5073402;28;20885;-78
2021/01/04 06:00:54;;;;;;;26.02;21.20;;;2.80;79.50;4.40;100248.00;;;;5101852;28;20421;-78
2021/01/04 06:03:23;;;;;;;27.90;22.00;;;2.80;79.30;4.50;100251.00;;;;5092846;28;20416;-77
2021/01/04 06:05:52;;;;;;;28.05;21.92;;;2.80;79.50;4.60;100248.00;;;;5106127;28;20931;-78
2021/01/04 06:08:24;;;;;;;30.27;22.47;;;2.90;79.20;4.60;100250.00;;;;5090078;28;20504;-77
2021/01/04 06:10:55;;;;;;;27.85;22.23;;;2.90;79.30;217.30;158640.00;;;;5094481;28;20456;-77
2021/01/04 06:13:22;;;;;;;33.10;23.55;;;2.90;79.10;4.60;100263.00;;;;5089172;28;20439;-77
2021/01/04 06:15:50;;;;;;;28.73;21.27;;;2.90;79.00;4.60;100245.00;;;;5090038;28;20465;-77
2021/01/04 06:18:27;;;;;;;28.55;21.75;;;2.90;78.80;4.50;100249.00;;;;5074725;28;20506;-76
2021/01/04 06:21:36;;;;;;;29.10;22.70;;;2.90;79.00;4.50;100263.00;;;;5090027;28;20446;-76
2021/01/04 06:24:05;;;;;;;28.73;22.13;;;2.90;79.00;4.50;100263.00;;;;5098733;28;20413;-77
2021/01/04 06:26:35;;;;;;;27.52;22.35;;;2.90;78.70;4.50;100255.00;;;;5089202;28;20414;-76
2021/01/04 06:29:06;;;;;;;29.02;21.88;;;2.90;79.00;4.50;100260.00;;;;5094740;28;20431;-77
2021/01/04 06:31:40;;;;;;;27.75;21.38;;;2.90;79.10;4.50;100262.00;;;;5106733;28;20429;-77
2021/01/04 06:34:21;;;;;;;27.73;21.53;;;2.90;78.90;4.50;100276.00;;;;5108028;28;20456;-77
2021/01/04 06:36:53;;;;;;;29.50;22.08;;;2.90;78.90;4.60;100264.00;;;;5098317;28;20452;-77
2021/01/04 06:39:28;;;;;;;26.75;20.80;;;2.90;78.70;4.60;100274.00;;;;5098168;28;20436;-78
2021/01/04 06:42:08;;;;;;;26.55;21.38;;;2.90;78.60;4.50;100267.00;;;;5097540;28;20405;-77
2021/01/04 06:44:36;;;;;;;26.77;21.10;;;2.90;78.30;4.50;100264.00;;;;5092637;28;20434;-76
2021/01/04 06:47:48;;;;;;;27.33;21.27;;;2.90;78.70;217.30;158588.00;;;;5089645;28;20419;-77
2021/01/04 06:50:26;;;;;;;26.45;20.65;;;2.80;78.50;4.40;100274.00;;;;5097930;28;20555;-78
2021/01/04 06:53:40;;;;;;;25.30;20.10;;;2.90;78.90;4.40;100275.00;;;;5097471;28;20446;-77
2021/01/04 06:56:46;;;;;;;27.25;21.17;;;2.80;78.70;4.50;100273.00;;;;5097955;28;20441;-77
2021/01/04 06:59:59;;;;;;;28.25;21.30;;;2.90;79.10;4.40;100272.00;;;;5103754;28;20452;-77
2021/01/04 07:03:29;;;;;;;26.60;21.30;;;2.80;78.80;4.40;100282.00;;;;5110397;28;20519;-78
2021/01/04 07:06:36;;;;;;;26.87;21.37;;;2.80;79.00;4.50;67245.00;;;;5095383;28;20421;-77
2021/01/04 07:09:49;;;;;;;25.88;21.10;;;2.80;78.90;4.50;100298.00;;;;5076337;28;20510;-78
2021/01/04 07:12:25;;;;;;;28.42;21.52;;;2.80;78.90;4.60;100289.00;;;;5079279;28;20512;-78
2021/01/04 07:15:16;;;;;;;28.70;22.05;;;2.90;79.30;4.60;100290.00;;;;5115331;28;20455;-78
2021/01/04 07:18:23;;;;;;;28.85;21.90;;;2.90;79.20;4.60;100274.00;;;;5116994;28;20456;-78
2021/01/04 07:21:13;;;;;;;26.00;20.77;;;3.10;78.90;4.60;100288.00;;;;5017546;28;20458;-76
2021/01/04 07:23:51;;;;;;;28.60;22.20;;;2.90;78.70;4.50;100288.00;;;;5094342;28;20419;-77
2021/01/04 07:26:34;;;;;;;27.08;21.70;;;2.90;78.90;4.50;100295.00;;;;5088366;28;20413;-77
2021/01/04 07:29:27;;;;;;;28.85;22.83;;;2.90;78.90;4.50;100287.00;;;;5098728;28;20416;-78
2021/01/04 07:31:59;;;;;;;29.00;23.00;;;2.90;79.00;4.60;100298.00;;;;5108692;27;20569;-79
2021/01/04 07:34:34;;;;;;;26.05;20.80;;;2.90;78.60;4.60;100287.00;;;;5088238;28;20415;-78
2021/01/04 07:37:36;;;;;;;26.17;20.80;;;3.00;78.40;4.60;100305.00;;;;5104353;28;20431;-77
2021/01/04 07:40:37;;;;;;;27.00;20.75;;;2.90;78.30;4.60;100294.00;;;;5080006;28;20484;-77
2021/01/04 07:43:58;;;;;;;27.27;21.50;;;2.90;79.10;4.60;67285.00;;;;5087339;28;20539;-76
2021/01/04 07:47:12;;;;;;;27.40;21.90;;;3.00;78.80;4.70;100294.00;;;;5089760;28;20484;-79
2021/01/04 07:50:28;;;;;;;26.15;20.55;;;3.00;78.60;4.70;100292.00;;;;5083200;28;20944;-77
2021/01/04 07:53:52;;;;;;;29.43;22.30;;;3.00;78.80;4.60;99878.00;;;;5083993;28;21010;-81
2021/01/04 07:57:32;;;;;;;28.15;21.98;;;3.00;78.70;4.60;100301.00;;;;5094000;28;20420;-77
2021/01/04 08:00:42;;;;;;;25.45;21.08;;;3.00;78.70;4.50;100300.00;;;;5077780;28;20485;-78
2021/01/04 08:04:22;;;;;;;26.05;21.20;;;3.00;78.10;4.60;100313.00;;;;5090173;28;20451;-77
2021/01/04 08:07:32;;;;;;;27.83;20.52;;;3.00;78.30;4.60;100308.00;;;;5072554;28;20431;-78
2021/01/04 08:10:32;;;;;;;23.83;19.67;;;3.00;78.30;4.50;100314.00;;;;5071896;28;20411;-79
2021/01/04 08:13:45;;;;;;;26.27;20.17;;;2.90;78.10;4.50;100319.00;;;;5078426;28;20513;-78
2021/01/04 08:16:21;;;;;;;25.75;20.50;;;3.00;78.10;4.50;100313.00;;;;5068130;28;20413;-78
2021/01/04 08:18:56;;;;;;;26.13;21.38;;;2.90;78.50;4.40;100302.00;;;;5080262;28;20477;-78
2021/01/04 08:21:36;;;;;;;24.50;20.10;;;2.90;78.10;4.30;100335.00;;;;5102301;28;20449;-77
2021/01/04 08:24:12;;;;;;;28.47;21.40;;;2.90;78.60;4.40;100312.00;;;;5090664;28;20408;-77
2021/01/04 08:27:02;;;;;;;25.25;20.27;;;2.80;78.90;4.50;100310.00;;;;5085588;28;20525;-77
2021/01/04 08:29:44;;;;;;;22.45;18.90;;;3.10;79.10;217.30;158588.00;;;;5091012;28;20457;-77
2021/01/04 08:32:21;;;;;;;24.40;19.80;;;2.90;78.10;4.40;100301.00;;;;5087004;28;20460;-78
2021/01/04 08:34:49;;;;;;;26.27;20.80;;;2.90;78.00;4.50;100309.00;;;;5087939;28;20861;-76
2021/01/04 08:37:31;;;;;;;25.05;19.90;;;2.90;78.60;4.50;100304.00;;;;5082896;28;20424;-78
2021/01/04 08:40:24;;;;;;;23.38;19.80;;;3.00;78.10;4.60;100300.00;;;;5091594;28;20454;-79
2021/01/04 08:43:05;;;;;;;22.83;19.73;;;3.00;78.10;4.60;100312.00;;;;5087692;28;23082;-78
2021/01/04 08:45:37;;;;;;;21.90;17.92;;;3.00;77.60;4.60;100318.00;;;;5104302;28;20461;-79
2021/01/04 08:48:18;;;;;;;23.63;18.20;;;3.00;77.70;4.50;100310.00;;;;5092515;28;20539;-77
2021/01/04 08:51:00;;;;;;;22.67;19.10;;;3.00;77.60;4.60;100304.00;;;;5088801;28;20454;-79
2021/01/04 08:53:28;;;;;;;22.63;18.83;;;3.00;77.20;4.70;100321.00;;;;5096553;28;21052;-78
2021/01/04 08:56:17;;;;;;;22.50;19.38;;;3.00;77.30;52.70;158640.00;;;;5093696;28;20462;-79
2021/01/04 08:58:46;;;;;;;20.80;17.73;;;3.00;77.40;4.60;100307.00;;;;5116085;28;20421;-77
2021/01/04 09:01:25;;;;;;;22.17;18.90;;;3.00;77.10;4.60;100287.00;;;;5099740;28;20840;-78
2021/01/04 09:04:06;;;;;;;22.20;18.25;;;3.00;77.30;4.70;100309.00;;;;5089262;28;20462;-76
2021/01/04 09:06:36;;;;;;;21.33;17.52;;;3.00;77.00;4.60;100306.00;;;;5083157;28;20433;-78
2021/01/04 09:09:17;;;;;;;22.08;18.08;;;3.00;76.90;4.70;100331.00;;;;5094110;28;20431;-77
2021/01/04 09:11:59;;;;;;;21.75;17.63;;;3.00;77.00;4.80;100305.00;;;;5090243;28;20553;-77
2021/01/04 09:14:36;;;;;;;21.83;17.90;;;3.10;76.90;217.30;158738.00;;;;5105011;28;20445;-77
2021/01/04 09:17:14;;;;;;;20.50;17.35;;;3.20;77.50;4.80;100323.00;;;;5097408;28;20468;-78
2021/01/04 09:19:43;;;;;;;20.50;17.10;;;3.10;76.50;217.30;158649.00;;;;5092984;28;20469;-79
2021/01/04 09:22:13;;;;;;;19.13;16.35;;;3.10;76.50;4.80;100311.00;;;;5088810;28;20948;-79
2021/01/04 09:24:42;;;;;;;21.23;17.30;;;3.10;76.80;4.80;100334.00;;;;5091355;28;20460;-79
2021/01/04 09:27:26;;;;;;;19.92;17.20;;;3.20;76.70;4.90;100331.00;;;;5112177;28;20417;-79
2021/01/04 09:29:58;;;;;;;18.80;16.00;;;3.20;76.80;4.90;100322.00;;;;5105802;28;20556;-80
2021/01/04 09:32:35;;;;;;;19.80;16.63;;;3.20;76.40;4.80;100323.00;;;;5086724;28;20513;-79
2021/01/04 09:35:06;;;;;;;19.23;16.75;;;3.20;76.10;4.80;100311.00;;;;5099810;28;20460;-78
2021/01/04 09:38:00;;;;;;;19.48;17.30;;;3.20;76.60;4.90;100339.00;;;;5080842;28;20423;-80
2021/01/04 09:40:30;;;;;;;21.35;16.75;;;3.30;76.50;5.00;100322.00;;;;5098578;28;20422;-77
2021/01/04 09:43:07;;;;;;;18.85;16.83;;;3.30;77.30;5.00;100338.00;;;;5124275;28;20473;-80
2021/01/04 09:45:35;;;;;;;21.67;17.67;;;3.30;76.20;5.00;100334.00;;;;5106666;28;20456;-80
2021/01/04 09:48:07;;;;;;;19.48;16.40;;;3.40;75.60;5.00;100311.00;;;;5108765;28;20397;-80
2021/01/04 09:50:43;;;;;;;19.77;15.43;;;3.40;76.00;5.00;100317.00;;;;5129431;28;20442;-78
2021/01/04 09:53:20;;;;;;;19.95;16.23;;;3.40;76.00;5.00;100332.00;;;;5114690;28;20421;-80
2021/01/04 09:55:49;;;;;;;20.07;16.37;;;3.40;76.00;5.00;100331.00;;;;5112798;28;20446;-78
2021/01/04 09:58:20;;;;;;;17.00;15.20;;;3.40;75.90;5.10;100323.00;;;;5112696;28;20457;-77
2021/01/04 10:00:48;;;;;;;18.65;14.68;;;3.40;75.90;5.10;67384.00;;;;5107638;28;20417;-76
2021/01/04 10:03:19;;;;;;;18.35;15.13;;;3.40;76.40;5.00;67371.00;;;;5118272;28;20424;-77
2021/01/04 10:05:50;;;;;;;18.60;15.57;;;3.40;75.00;217.30;158867.00;;;;5103427;28;20417;-76
2021/01/04 10:08:21;;;;;;;16.38;14.60;;;3.40;75.80;5.10;100321.00;;;;5096897;28;20448;-79
2021/01/04 10:10:56;;;;;;;17.60;15.20;;;3.40;75.30;5.20;100323.00;;;;5114889;28;20477;-78
2021/01/04 10:13:24;;;;;;;17.70;14.68;;;3.50;75.60;5.10;100333.00;;;;5099990;28;20874;-81
2021/01/04 10:15:54;;;;;;;17.38;14.60;;;3.50;74.60;5.10;100300.00;;;;5127325;28;20402;-81
2021/01/04 10:18:37;;;;;;;18.27;15.17;;;3.50;74.40;5.20;100314.00;;;;5113904;28;20474;-79
2021/01/04 10:21:12;;;;;;;16.20;13.97;;;3.50;74.80;5.30;100316.00;;;;5114383;28;20463;-77
2021/01/04 10:23:46;;;;;;;17.30;14.57;;;3.60;74.70;217.30;158982.00;;;;5136062;28;20449;-82
2021/01/04 10:26:39;;;;;;;16.00;14.07;;;3.60;74.30;5.50;100323.00;;;;5113033;28;20445;-79
2021/01/04 10:29:07;;;;;;;16.73;14.43;;;3.70;74.10;5.50;100311.00;;;;5114787;28;20442;-79
2021/01/04 10:31:35;;;;;;;15.50;13.77;;;3.70;74.00;5.60;100295.00;;;;5115562;28;20396;-78
2021/01/04 10:34:07;;;;;;;18.02;14.55;;;3.80;73.70;5.60;100309.00;;;;5121210;28;20412;-80
2021/01/04 10:36:36;;;;;;;15.70;14.00;;;3.80;73.60;5.60;100313.00;;;;5120099;28;20449;-78
2021/01/04 10:39:09;;;;;;;15.45;13.85;;;3.80;73.60;5.60;100300.00;;;;5129394;28;20414;-77
2021/01/04 10:41:37;;;;;;;16.67;14.88;;;3.80;73.30;5.60;100287.00;;;;5115049;28;20450;-78
2021/01/04 10:44:14;;;;;;;16.80;14.00;;;3.80;72.90;5.70;100305.00;;;;5117163;27;20906;-78
2021/01/04 10:46:47;;;;;;;15.85;14.18;;;3.90;73.00;5.70;100295.00;;;;5115645;28;20512;-80
2021/01/04 10:49:26;;;;;;;15.63;13.93;;;3.90;73.30;5.70;100306.00;;;;5095561;28;20421;-77
2021/01/04 10:51:55;;;;;;;15.50;13.65;;;3.90;73.30;5.80;100309.00;;;;5091806;28;20426;-77
2021/01/04 10:54:37;;;;;;;15.40;13.70;;;3.90;73.00;5.90;100307.00;;;;5088950;28;20448;-76
2021/01/04 10:57:23;;;;;;;14.38;12.88;;;4.00;72.40;5.90;100301.00;;;;5083849;28;20413;-76
2021/01/04 11:00:01;;;;;;;14.90;13.30;;;4.10;72.00;6.00;100290.00;;;;5074044;28;20535;-77
2021/01/04 11:02:39;;;;;;;14.23;12.73;;;4.20;72.10;6.00;100304.00;;;;5089017;28;20472;-77
2021/01/04 11:05:08;;;;;;;15.05;13.30;;;4.10;70.90;5.90;100297.00;;;;5082981;28;20424;-77
2021/01/04 11:07:36;;;;;;;14.38;12.85;;;4.00;71.40;5.80;100304.00;;;;5087252;28;20470;-78
2021/01/04 11:10:18;;;;;;;15.50;13.90;;;4.00;71.10;6.00;100284.00;;;;5090161;28;20450;-78
2021/01/04 11:12:50;;;;;;;15.23;13.63;;;4.10;71.60;6.10;100285.00;;;;5099967;28;20535;-77
2021/01/04 11:15:29;;;;;;;15.10;13.38;;;4.20;71.60;6.20;100280.00;;;;5097086;28;20468;-77
2021/01/04 11:18:00;;;;;;;15.60;13.90;;;4.30;72.10;6.20;100280.00;;;;5101989;27;20915;-77
2021/01/04 11:20:28;;;;;;;14.90;13.30;;;4.30;70.40;6.10;100274.00;;;;5101327;28;20462;-78
2021/01/04 11:23:06;;;;;;;15.20;13.02;;;4.30;70.40;6.00;67576.00;;;;5102727;28;20493;-77
2021/01/04 11:25:34;;;;;;;15.40;13.65;;;4.20;70.20;5.90;100272.00;;;;5088012;28;20835;-78
2021/01/04 11:28:03;;;;;;;15.27;13.40;;;4.20;70.80;6.10;100260.00;;;;5088315;28;20933;-79
2021/01/04 11:30:31;;;;;;;14.73;13.23;;;4.20;71.50;6.20;100268.00;;;;5088595;28;20490;-78
2021/01/04 11:33:00;;;;;;;15.13;13.27;;;4.30;71.00;6.20;100261.00;;;;5094182;28;20414;-78
2021/01/04 11:35:30;;;;;;;14.48;12.98;;;4.30;70.40;6.30;100259.00;;;;5094677;28;20418;-78
2021/01/04 11:37:58;;;;;;;13.85;12.32;;;4.40;70.50;6.20;100273.00;;;;5094743;28;20466;-79
2021/01/04 11:40:27;;;;;;;15.65;13.23;;;4.30;70.60;6.20;100257.00;;;;5094619;28;20401;-78
2021/01/04 11:42:54;;;;;;;14.00;12.30;;;4.30;70.30;6.20;100250.00;;;;5095960;28;20445;-78
2021/01/04 11:45:23;;;;;;;14.23;12.30;;;4.30;70.50;5.90;100275.00;;;;5094772;28;20421;-78
2021/01/04 11:47:50;;;;;;;13.63;12.18;;;4.20;69.60;52.70;159207.00;;;;5096127;28;20945;-78